sensor_id;sensor_type;location;lat;lon;timestamp;pressure;altitude;pressure_sealevel;temperature;humidity
64610;BME280;51019;46.090;6.350;2023-02-17T00:02:14;97870.69;;;-0.67;100.00
64610;BME280;51019;46.090;6.350;2023-02-17T00:04:41;97872.00;;;-0.83;100.00
64610;BME280;51019;46.090;6.350;2023-02-17T00:07:09;97776.84;;;-1.50;100.00
64610;BME280;51019;46.090;6.350;2023-02-17T00:09:36;97848.34;;;-0.97;100.00
64610;BME280;51019;46.090;6.350;2023-02-17T00:12:04;97845.22;;;-1.08;100.00
64610;BME280;51019;46.090;6.350;2023-02-17T00:14:31;97874.63;;;-0.85;100.00
64610;BME280;51019;46.090;6.350;2023-02-17T00:16:58;97871.94;;;-0.80;100.00
64610;BME280;51019;46.090;6.350;2023-02-17T00:19:27;97872.78;;;-0.80;100.00
64610;BME280;51019;46.090;6.350;2023-02-17T00:21:57;97864.31;;;-0.85;100.00
64610;BME280;51019;46.090;6.350;2023-02-17T00:24:27;97891.75;;;-0.84;100.00
64610;BME280;51019;46.090;6.350;2023-02-17T00:26:55;97878.84;;;-0.82;100.00
64610;BME280;51019;46.090;6.350;2023-02-17T00:29:23;97886.69;;;-0.87;100.00
64610;BME280;51019;46.090;6.350;2023-02-17T00:31:51;97881.16;;;-0.73;100.00
64610;BME280;51019;46.090;6.350;2023-02-17T00:34:19;97796.91;;;-0.99;100.00
64610;BME280;51019;46.090;6.350;2023-02-17T00:36:50;97854.59;;;-0.74;100.00
64610;BME280;51019;46.090;6.350;2023-02-17T00:39:17;97841.63;;;-0.70;100.00
64610;BME280;51019;46.090;6.350;2023-02-17T00:41:45;97877.09;;;-0.49;100.00
64610;BME280;51019;46.090;6.350;2023-02-17T00:44:15;97890.03;;;-0.21;100.00
64610;BME280;51019;46.090;6.350;2023-02-17T00:46:43;97896.91;;;-0.22;100.00
64610;BME280;51019;46.090;6.350;2023-02-17T00:49:14;97887.91;;;-0.37;100.00
64610;BME280;51019;46.090;6.350;2023-02-17T00:51:42;97886.81;;;-0.29;100.00
64610;BME280;51019;46.090;6.350;2023-02-17T00:54:12;97887.31;;;-0.17;100.00
64610;BME280;51019;46.090;6.350;2023-02-17T00:56:40;97887.38;;;-0.18;100.00
64610;BME280;51019;46.090;6.350;2023-02-17T00:59:08;97891.88;;;-0.25;100.00
64610;BME280;51019;46.090;6.350;2023-02-17T01:01:37;97884.72;;;-0.15;100.00
64610;BME280;51019;46.090;6.350;2023-02-17T01:04:05;97884.00;;;0.09;100.00
64610;BME280;51019;46.090;6.350;2023-02-17T01:06:35;97887.94;;;-0.09;100.00
64610;BME280;51019;46.090;6.350;2023-02-17T01:09:05;97890.22;;;-0.27;100.00
64610;BME280;51019;46.090;6.350;2023-02-17T01:11:35;97886.88;;;-0.31;100.00
64610;BME280;51019;46.090;6.350;2023-02-17T01:14:03;97891.66;;;-0.19;100.00
64610;BME280;51019;46.090;6.350;2023-02-17T01:16:33;97803.97;;;-0.75;100.00
64610;BME280;51019;46.090;6.350;2023-02-17T01:19:01;97893.28;;;-0.15;100.00
64610;BME280;51019;46.090;6.350;2023-02-17T01:21:30;97881.53;;;0.05;100.00
64610;BME280;51019;46.090;6.350;2023-02-17T01:24:00;97899.50;;;0.08;100.00
64610;BME280;51019;46.090;6.350;2023-02-17T01:26:30;97862.22;;;-0.10;100.00
64610;BME280;51019;46.090;6.350;2023-02-17T01:28:59;97864.91;;;-0.13;100.00
64610;BME280;51019;46.090;6.350;2023-02-17T01:31:27;97896.59;;;0.18;100.00
64610;BME280;51019;46.090;6.350;2023-02-17T01:33:59;97885.34;;;0.49;100.00
64610;BME280;51019;46.090;6.350;2023-02-17T01:36:27;97749.88;;;0.37;100.00
64610;BME280;51019;46.090;6.350;2023-02-17T01:38:54;97879.63;;;2.13;100.00
64610;BME280;51019;46.090;6.350;2023-02-17T01:41:24;97852.84;;;2.36;96.46
64610;BME280;51019;46.090;6.350;2023-02-17T01:44:11;97879.72;;;2.75;92.46
64610;BME280;51019;46.090;6.350;2023-02-17T01:46:40;97880.13;;;2.86;90.80
64610;BME280;51019;46.090;6.350;2023-02-17T01:49:16;97872.53;;;3.04;88.39
64610;BME280;51019;46.090;6.350;2023-02-17T01:51:48;97868.38;;;3.20;86.52
64610;BME280;51019;46.090;6.350;2023-02-17T01:54:19;97858.66;;;3.45;83.91
64610;BME280;51019;46.090;6.350;2023-02-17T01:56:49;97840.13;;;3.34;82.98
64610;BME280;51019;46.090;6.350;2023-02-17T01:59:23;97870.34;;;3.54;82.93
64610;BME280;51019;46.090;6.350;2023-02-17T02:01:54;97860.38;;;3.45;83.20
64610;BME280;51019;46.090;6.350;2023-02-17T02:04:25;97876.06;;;2.81;93.22
64610;BME280;51019;46.090;6.350;2023-02-17T02:06:54;97868.81;;;2.47;96.80
64610;BME280;51019;46.090;6.350;2023-02-17T02:09:25;97875.13;;;1.95;100.00
64610;BME280;51019;46.090;6.350;2023-02-17T02:11:54;97871.88;;;1.66;100.00
64610;BME280;51019;46.090;6.350;2023-02-17T02:14:23;97875.59;;;1.34;100.00
64610;BME280;51019;46.090;6.350;2023-02-17T02:16:56;97889.31;;;0.85;100.00
64610;BME280;51019;46.090;6.350;2023-02-17T02:19:44;97883.41;;;0.82;100.00
64610;BME280;51019;46.090;6.350;2023-02-17T02:22:33;97784.88;;;0.18;100.00
64610;BME280;51019;46.090;6.350;2023-02-17T02:25:16;97883.72;;;0.72;100.00
64610;BME280;51019;46.090;6.350;2023-02-17T02:27:57;97879.75;;;0.62;100.00
64610;BME280;51019;46.090;6.350;2023-02-17T02:30:55;97850.88;;;0.51;100.00
64610;BME280;51019;46.090;6.350;2023-02-17T02:33:32;97785.66;;;0.46;100.00
64610;BME280;51019;46.090;6.350;2023-02-17T02:36:10;97793.91;;;0.57;100.00
64610;BME280;51019;46.090;6.350;2023-02-17T02:38:41;97859.41;;;1.04;100.00
64610;BME280;51019;46.090;6.350;2023-02-17T02:41:13;97859.94;;;0.89;100.00
64610;BME280;51019;46.090;6.350;2023-02-17T02:43:42;97768.41;;;0.48;100.00
64610;BME280;51019;46.090;6.350;2023-02-17T02:46:12;97857.34;;;1.14;100.00
64610;BME280;51019;46.090;6.350;2023-02-17T02:48:42;97769.91;;;0.55;100.00
64610;BME280;51019;46.090;6.350;2023-02-17T02:51:36;97862.09;;;1.74;100.00
64610;BME280;51019;46.090;6.350;2023-02-17T02:54:15;97866.28;;;2.24;99.39
64610;BME280;51019;46.090;6.350;2023-02-17T02:56:55;97854.97;;;2.48;95.41
64610;BME280;51019;46.090;6.350;2023-02-17T02:59:33;97866.78;;;2.75;91.50
64610;BME280;51019;46.090;6.350;2023-02-17T03:02:14;97729.16;;;2.24;87.93
64610;BME280;51019;46.090;6.350;2023-02-17T03:04:50;97857.16;;;3.19;85.47
64610;BME280;51019;46.090;6.350;2023-02-17T03:07:25;97839.53;;;2.87;87.60
64610;BME280;51019;46.090;6.350;2023-02-17T03:10:12;97850.91;;;2.83;91.60
64610;BME280;51019;46.090;6.350;2023-02-17T03:12:40;97765.66;;;1.72;100.00
64610;BME280;51019;46.090;6.350;2023-02-17T03:15:11;97809.91;;;1.41;100.00
64610;BME280;51019;46.090;6.350;2023-02-17T03:17:40;97866.66;;;1.68;100.00
64610;BME280;51019;46.090;6.350;2023-02-17T03:20:11;97855.53;;;1.66;100.00
64610;BME280;51019;46.090;6.350;2023-02-17T03:22:42;97828.72;;;1.45;100.00
64610;BME280;51019;46.090;6.350;2023-02-17T03:25:12;97772.69;;;1.24;100.00
64610;BME280;51019;46.090;6.350;2023-02-17T03:27:39;97857.69;;;1.53;100.00
64610;BME280;51019;46.090;6.350;2023-02-17T03:30:08;97831.00;;;1.29;100.00
64610;BME280;51019;46.090;6.350;2023-02-17T03:32:36;97848.28;;;1.27;100.00
64610;BME280;51019;46.090;6.350;2023-02-17T03:35:04;97846.22;;;1.37;100.00
64610;BME280;51019;46.090;6.350;2023-02-17T03:37:33;97849.41;;;1.45;100.00
64610;BME280;51019;46.090;6.350;2023-02-17T03:40:01;97851.13;;;1.44;100.00
64610;BME280;51019;46.090;6.350;2023-02-17T03:42:29;97858.19;;;1.39;100.00
64610;BME280;51019;46.090;6.350;2023-02-17T03:44:56;97853.72;;;1.20;100.00
64610;BME280;51019;46.090;6.350;2023-02-17T03:47:24;97831.84;;;0.80;100.00
64610;BME280;51019;46.090;6.350;2023-02-17T03:49:51;97857.06;;;0.72;100.00
64610;BME280;51019;46.090;6.350;2023-02-17T03:52:19;97860.56;;;0.69;100.00
64610;BME280;51019;46.090;6.350;2023-02-17T03:54:48;97807.50;;;0.36;100.00
64610;BME280;51019;46.090;6.350;2023-02-17T03:57:17;97839.34;;;0.61;100.00
64610;BME280;51019;46.090;6.350;2023-02-17T03:59:44;97837.88;;;0.54;100.00
64610;BME280;51019;46.090;6.350;2023-02-17T04:02:12;97838.94;;;0.73;100.00
64610;BME280;51019;46.090;6.350;2023-02-17T04:04:39;97858.44;;;0.82;100.00
64610;BME280;51019;46.090;6.350;2023-02-17T04:07:07;97864.00;;;0.96;100.00
64610;BME280;51019;46.090;6.350;2023-02-17T04:09:35;97863.16;;;0.96;100.00
64610;BME280;51019;46.090;6.350;2023-02-17T04:12:05;97762.53;;;0.18;100.00
64610;BME280;51019;46.090;6.350;2023-02-17T04:14:32;97798.88;;;0.37;100.00
64610;BME280;51019;46.090;6.350;2023-02-17T04:16:59;97843.09;;;0.53;100.00
64610;BME280;51019;46.090;6.350;2023-02-17T04:19:27;97850.94;;;0.48;100.00
64610;BME280;51019;46.090;6.350;2023-02-17T04:21:54;97813.41;;;0.12;100.00
64610;BME280;51019;46.090;6.350;2023-02-17T04:24:22;97855.81;;;0.03;100.00
64610;BME280;51019;46.090;6.350;2023-02-17T04:26:49;97866.78;;;0.10;100.00
64610;BME280;51019;46.090;6.350;2023-02-17T04:29:19;97886.38;;;0.15;100.00
64610;BME280;51019;46.090;6.350;2023-02-17T04:31:46;97879.56;;;0.13;100.00
64610;BME280;51019;46.090;6.350;2023-02-17T04:34:13;97877.88;;;0.12;100.00
64610;BME280;51019;46.090;6.350;2023-02-17T04:36:40;97871.16;;;0.08;100.00
64610;BME280;51019;46.090;6.350;2023-02-17T04:39:08;97817.56;;;-0.40;100.00
64610;BME280;51019;46.090;6.350;2023-02-17T04:41:36;97876.63;;;-0.03;100.00
64610;BME280;51019;46.090;6.350;2023-02-17T04:44:03;97850.72;;;-0.28;100.00
64610;BME280;51019;46.090;6.350;2023-02-17T04:46:32;97862.78;;;-0.30;100.00
64610;BME280;51019;46.090;6.350;2023-02-17T04:49:00;97869.63;;;0.00;100.00
64610;BME280;51019;46.090;6.350;2023-02-17T04:51:27;97803.09;;;-0.44;100.00
64610;BME280;51019;46.090;6.350;2023-02-17T04:53:55;97851.00;;;-0.09;100.00
64610;BME280;51019;46.090;6.350;2023-02-17T04:56:22;97866.75;;;-0.18;100.00
64610;BME280;51019;46.090;6.350;2023-02-17T04:58:50;97872.34;;;-0.33;100.00
64610;BME280;51019;46.090;6.350;2023-02-17T05:01:18;97877.94;;;-0.49;100.00
64610;BME280;51019;46.090;6.350;2023-02-17T05:03:47;97868.66;;;-0.56;100.00
64610;BME280;51019;46.090;6.350;2023-02-17T05:06:15;97741.94;;;-1.26;100.00
64610;BME280;51019;46.090;6.350;2023-02-17T05:08:42;97872.81;;;-0.50;100.00
64610;BME280;51019;46.090;6.350;2023-02-17T05:11:12;97878.31;;;-0.33;100.00
64610;BME280;51019;46.090;6.350;2023-02-17T05:13:40;97866.16;;;-0.57;100.00
64610;BME280;51019;46.090;6.350;2023-02-17T05:16:07;97837.34;;;-0.70;100.00
64610;BME280;51019;46.090;6.350;2023-02-17T05:18:35;97854.88;;;-0.53;100.00
64610;BME280;51019;46.090;6.350;2023-02-17T05:21:05;97877.75;;;-0.43;100.00
64610;BME280;51019;46.090;6.350;2023-02-17T05:23:32;97877.31;;;-0.57;100.00
64610;BME280;51019;46.090;6.350;2023-02-17T05:26:06;97881.16;;;-0.42;100.00
64610;BME280;51019;46.090;6.350;2023-02-17T05:28:34;97875.69;;;-0.61;100.00
64610;BME280;51019;46.090;6.350;2023-02-17T05:31:02;97873.53;;;-0.45;100.00
64610;BME280;51019;46.090;6.350;2023-02-17T05:33:31;97828.31;;;-0.86;100.00
64610;BME280;51019;46.090;6.350;2023-02-17T05:36:01;97870.28;;;-0.52;100.00
64610;BME280;51019;46.090;6.350;2023-02-17T05:38:31;97811.06;;;-0.83;100.00
64610;BME280;51019;46.090;6.350;2023-02-17T05:40:58;97854.88;;;-0.53;100.00
64610;BME280;51019;46.090;6.350;2023-02-17T05:43:26;97793.88;;;-0.81;100.00
64610;BME280;51019;46.090;6.350;2023-02-17T05:45:53;97880.22;;;-0.38;100.00
64610;BME280;51019;46.090;6.350;2023-02-17T05:48:21;97850.72;;;-0.28;100.00
64610;BME280;51019;46.090;6.350;2023-02-17T05:50:48;97864.78;;;-0.10;100.00
64610;BME280;51019;46.090;6.350;2023-02-17T05:53:16;97826.34;;;-0.46;100.00
64610;BME280;51019;46.090;6.350;2023-02-17T05:55:45;97808.44;;;-0.50;100.00
64610;BME280;51019;46.090;6.350;2023-02-17T05:58:12;97881.72;;;-0.02;100.00
64610;BME280;51019;46.090;6.350;2023-02-17T06:00:40;97883.28;;;0.04;100.00
64610;BME280;51019;46.090;6.350;2023-02-17T06:03:07;97890.00;;;0.10;100.00
64610;BME280;51019;46.090;6.350;2023-02-17T06:05:35;97883.66;;;0.20;100.00
64610;BME280;51019;46.090;6.350;2023-02-17T06:08:02;97862.00;;;-0.03;100.00
64610;BME280;51019;46.090;6.350;2023-02-17T06:10:30;97866.31;;;0.25;100.00
64610;BME280;51019;46.090;6.350;2023-02-17T06:12:59;97808.09;;;-0.10;100.00
64610;BME280;51019;46.090;6.350;2023-02-17T06:15:26;97877.63;;;0.47;100.00
64610;BME280;51019;46.090;6.350;2023-02-17T06:17:54;97871.53;;;0.50;100.00
64610;BME280;51019;46.090;6.350;2023-02-17T06:20:22;97890.56;;;0.73;100.00
64610;BME280;51019;46.090;6.350;2023-02-17T06:22:49;97865.84;;;1.18;100.00
64610;BME280;51019;46.090;6.350;2023-02-17T06:25:17;97889.00;;;1.92;100.00
64610;BME280;51019;46.090;6.350;2023-02-17T06:27:44;97886.97;;;2.24;97.62
64610;BME280;51019;46.090;6.350;2023-02-17T06:30:14;97893.09;;;2.43;95.18
64610;BME280;51019;46.090;6.350;2023-02-17T06:32:42;97889.13;;;2.56;92.20
64610;BME280;51019;46.090;6.350;2023-02-17T06:35:09;97845.22;;;2.33;91.39
64610;BME280;51019;46.090;6.350;2023-02-17T06:37:37;97823.56;;;2.35;89.34
64610;BME280;51019;46.090;6.350;2023-02-17T06:40:06;97875.72;;;2.68;88.46
64610;BME280;51019;46.090;6.350;2023-02-17T06:42:33;97871.34;;;2.90;84.22
64610;BME280;51019;46.090;6.350;2023-02-17T06:45:01;97899.56;;;3.17;82.82
64610;BME280;51019;46.090;6.350;2023-02-17T06:47:32;97902.78;;;3.23;81.71
64610;BME280;51019;46.090;6.350;2023-02-17T06:50:00;97855.53;;;2.97;81.39
64610;BME280;51019;46.090;6.350;2023-02-17T06:52:27;97798.16;;;2.23;90.71
64610;BME280;51019;46.090;6.350;2023-02-17T06:54:55;97922.09;;;2.29;100.00
64610;BME280;51019;46.090;6.350;2023-02-17T06:57:23;97902.66;;;1.96;100.00
64610;BME280;51019;46.090;6.350;2023-02-17T06:59:50;97778.75;;;0.98;100.00
64610;BME280;51019;46.090;6.350;2023-02-17T07:02:18;97899.81;;;1.80;100.00
64610;BME280;51019;46.090;6.350;2023-02-17T07:04:48;97821.22;;;1.37;100.00
64610;BME280;51019;46.090;6.350;2023-02-17T07:07:15;97845.66;;;1.29;100.00
64610;BME280;51019;46.090;6.350;2023-02-17T07:09:43;97924.88;;;1.78;100.00
64610;BME280;51019;46.090;6.350;2023-02-17T07:12:10;97929.63;;;1.65;100.00
64610;BME280;51019;46.090;6.350;2023-02-17T07:14:38;97928.41;;;1.51;100.00
64610;BME280;51019;46.090;6.350;2023-02-17T07:17:05;97925.16;;;1.45;100.00
64610;BME280;51019;46.090;6.350;2023-02-17T07:19:33;97932.22;;;1.40;100.00
64610;BME280;51019;46.090;6.350;2023-02-17T07:22:02;97862.31;;;1.20;100.00
64610;BME280;51019;46.090;6.350;2023-02-17T07:24:30;97850.28;;;1.44;100.00
64610;BME280;51019;46.090;6.350;2023-02-17T07:26:58;97924.19;;;1.73;100.00
64610;BME280;51019;46.090;6.350;2023-02-17T07:29:26;97934.09;;;2.08;100.00
64610;BME280;51019;46.090;6.350;2023-02-17T07:31:54;97930.00;;;2.03;100.00
64610;BME280;51019;46.090;6.350;2023-02-17T07:34:21;97940.66;;;1.94;100.00
64610;BME280;51019;46.090;6.350;2023-02-17T07:36:49;97949.84;;;2.02;100.00
64610;BME280;51019;46.090;6.350;2023-02-17T07:39:18;97952.88;;;2.13;100.00
64610;BME280;51019;46.090;6.350;2023-02-17T07:41:45;97951.09;;;2.37;100.00
64610;BME280;51019;46.090;6.350;2023-02-17T07:44:12;97957.13;;;2.38;100.00
64610;BME280;51019;46.090;6.350;2023-02-17T07:46:40;97943.53;;;2.54;100.00
64610;BME280;51019;46.090;6.350;2023-02-17T07:49:07;97969.59;;;2.72;100.00
64610;BME280;51019;46.090;6.350;2023-02-17T07:51:35;97971.47;;;3.12;100.00
64610;BME280;51019;46.090;6.350;2023-02-17T07:54:03;97967.03;;;3.36;100.00
64610;BME280;51019;46.090;6.350;2023-02-17T07:56:32;97948.97;;;3.54;91.05
64610;BME280;51019;46.090;6.350;2023-02-17T07:59:00;97961.09;;;4.13;82.80
64610;BME280;51019;46.090;6.350;2023-02-17T08:01:27;97959.22;;;4.35;80.06
64610;BME280;51019;46.090;6.350;2023-02-17T08:03:55;97922.31;;;4.48;75.67
64610;BME280;51019;46.090;6.350;2023-02-17T08:06:23;97964.31;;;4.93;73.47
64610;BME280;51019;46.090;6.350;2023-02-17T08:08:52;97951.97;;;4.97;71.75
64610;BME280;51019;46.090;6.350;2023-02-17T08:11:39;97966.78;;;5.14;69.51
64610;BME280;51019;46.090;6.350;2023-02-17T08:14:24;97969.09;;;5.37;70.47
64610;BME280;51019;46.090;6.350;2023-02-17T08:16:52;97968.78;;;5.60;69.25
64610;BME280;51019;46.090;6.350;2023-02-17T08:19:20;97968.84;;;5.76;68.73
64610;BME280;51019;46.090;6.350;2023-02-17T08:21:48;97928.34;;;5.88;66.21
64610;BME280;51019;46.090;6.350;2023-02-17T08:24:16;97856.03;;;5.61;66.02
64610;BME280;51019;46.090;6.350;2023-02-17T08:26:48;97959.97;;;6.46;65.04
64610;BME280;51019;46.090;6.350;2023-02-17T08:29:15;97927.91;;;6.30;63.26
64610;BME280;51019;46.090;6.350;2023-02-17T08:31:44;97954.69;;;6.79;64.36
64610;BME280;51019;46.090;6.350;2023-02-17T08:34:12;97959.06;;;6.78;67.07
64610;BME280;51019;46.090;6.350;2023-02-17T08:36:40;97961.00;;;7.06;65.87
64610;BME280;51019;46.090;6.350;2023-02-17T08:39:10;97843.88;;;6.57;65.02
64610;BME280;51019;46.090;6.350;2023-02-17T08:41:39;97956.44;;;7.70;62.80
64610;BME280;51019;46.090;6.350;2023-02-17T08:44:10;97955.75;;;8.10;60.55
64610;BME280;51019;46.090;6.350;2023-02-17T08:46:37;97935.97;;;7.92;56.41
64610;BME280;51019;46.090;6.350;2023-02-17T08:49:05;97947.06;;;7.81;56.13
64610;BME280;51019;46.090;6.350;2023-02-17T08:51:33;97954.66;;;8.00;56.30
64610;BME280;51019;46.090;6.350;2023-02-17T08:54:01;97954.66;;;8.00;57.17
64610;BME280;51019;46.090;6.350;2023-02-17T08:56:32;97933.06;;;8.25;56.44
64610;BME280;51019;46.090;6.350;2023-02-17T08:59:00;97961.53;;;8.58;56.73
64610;BME280;51019;46.090;6.350;2023-02-17T09:01:30;97949.94;;;8.76;55.53
64610;BME280;51019;46.090;6.350;2023-02-17T09:03:59;97959.13;;;8.55;55.10
64610;BME280;51019;46.090;6.350;2023-02-17T09:06:32;97953.34;;;8.50;54.92
64610;BME280;51019;46.090;6.350;2023-02-17T09:09:00;97922.00;;;8.50;54.04
64610;BME280;51019;46.090;6.350;2023-02-17T09:11:28;97948.44;;;9.13;54.19
64610;BME280;51019;46.090;6.350;2023-02-17T09:13:55;97964.38;;;9.23;52.64
64610;BME280;51019;46.090;6.350;2023-02-17T09:16:23;97964.91;;;9.28;52.37
64610;BME280;51019;46.090;6.350;2023-02-17T09:18:53;97959.97;;;9.23;51.34
64610;BME280;51019;46.090;6.350;2023-02-17T09:21:21;97961.56;;;9.65;51.30
64610;BME280;51019;46.090;6.350;2023-02-17T09:23:49;97963.44;;;9.76;50.66
64610;BME280;51019;46.090;6.350;2023-02-17T09:26:18;97959.28;;;10.11;49.36
64610;BME280;51019;46.090;6.350;2023-02-17T09:28:46;97949.84;;;9.96;49.21
64610;BME280;51019;46.090;6.350;2023-02-17T09:31:16;97937.19;;;10.03;49.13
64610;BME280;51019;46.090;6.350;2023-02-17T09:33:44;97938.75;;;10.31;48.16
64610;BME280;51019;46.090;6.350;2023-02-17T09:36:16;97951.59;;;10.72;47.37
64610;BME280;51019;46.090;6.350;2023-02-17T09:38:45;97960.06;;;11.12;45.84
64610;BME280;51019;46.090;6.350;2023-02-17T09:41:18;97962.69;;;11.36;45.21
64610;BME280;51019;46.090;6.350;2023-02-17T09:43:48;97943.91;;;11.64;44.55
64610;BME280;51019;46.090;6.350;2023-02-17T09:46:20;97952.19;;;12.28;43.83
64610;BME280;51019;46.090;6.350;2023-02-17T09:48:51;97957.88;;;12.89;42.10
64610;BME280;51019;46.090;6.350;2023-02-17T09:51:27;97963.06;;;12.68;42.23
64610;BME280;51019;46.090;6.350;2023-02-17T09:54:02;97962.69;;;12.95;41.38
64610;BME280;51019;46.090;6.350;2023-02-17T09:56:34;97896.47;;;13.10;39.39
64610;BME280;51019;46.090;6.350;2023-02-17T09:59:10;97963.84;;;14.39;38.75
64610;BME280;51019;46.090;6.350;2023-02-17T10:01:39;97966.69;;;14.57;38.04
64610;BME280;51019;46.090;6.350;2023-02-17T10:04:11;97948.03;;;14.79;37.38
64610;BME280;51019;46.090;6.350;2023-02-17T10:06:44;97970.34;;;15.15;36.75
64610;BME280;51019;46.090;6.350;2023-02-17T10:09:15;97968.91;;;15.61;35.56
64610;BME280;51019;46.090;6.350;2023-02-17T10:11:49;97921.59;;;15.58;34.80
64610;BME280;51019;46.090;6.350;2023-02-17T10:14:21;97964.41;;;16.10;34.79
64610;BME280;51019;46.090;6.350;2023-02-17T10:16:54;97970.59;;;16.38;33.95
64610;BME280;51019;46.090;6.350;2023-02-17T10:19:27;97970.09;;;16.05;34.42
64610;BME280;51019;46.090;6.350;2023-02-17T10:22:03;97971.28;;;15.05;35.98
64610;BME280;51019;46.090;6.350;2023-02-17T10:24:32;97969.72;;;15.90;34.37
64610;BME280;51019;46.090;6.350;2023-02-17T10:29:56;97938.22;;;17.53;30.58
64610;BME280;51019;46.090;6.350;2023-02-17T10:32:27;97956.44;;;16.93;29.95
64610;BME280;51019;46.090;6.350;2023-02-17T10:35:11;97959.06;;;17.66;30.88
64610;BME280;51019;46.090;6.350;2023-02-17T10:37:45;97957.09;;;16.78;29.85
64610;BME280;51019;46.090;6.350;2023-02-17T10:40:17;97942.72;;;15.87;31.20
64610;BME280;51019;46.090;6.350;2023-02-17T10:42:47;97923.66;;;15.16;31.45
64610;BME280;51019;46.090;6.350;2023-02-17T10:45:23;97942.25;;;14.95;30.74
64610;BME280;51019;46.090;6.350;2023-02-17T10:47:57;97940.91;;;14.70;32.41
64610;BME280;51019;46.090;6.350;2023-02-17T10:50:27;97937.16;;;15.42;32.36
64610;BME280;51019;46.090;6.350;2023-02-17T10:52:57;97941.75;;;15.40;32.52
64610;BME280;51019;46.090;6.350;2023-02-17T10:55:30;97923.66;;;15.35;33.01
64610;BME280;51019;46.090;6.350;2023-02-17T10:58:05;97915.59;;;15.27;32.24
64610;BME280;51019;46.090;6.350;2023-02-17T11:00:33;97905.72;;;15.10;32.55
64610;BME280;51019;46.090;6.350;2023-02-17T11:03:00;97928.66;;;15.38;32.46
64610;BME280;51019;46.090;6.350;2023-02-17T11:05:29;97917.50;;;16.12;31.70
64610;BME280;51019;46.090;6.350;2023-02-17T11:08:02;97915.91;;;15.63;33.75
64610;BME280;51019;46.090;6.350;2023-02-17T11:10:32;97918.50;;;15.82;34.19
64610;BME280;51019;46.090;6.350;2023-02-17T11:13:01;97902.53;;;15.74;34.15
64610;BME280;51019;46.090;6.350;2023-02-17T11:15:34;97915.47;;;15.77;34.81
64610;BME280;51019;46.090;6.350;2023-02-17T11:18:08;97915.78;;;15.64;34.36
64610;BME280;51019;46.090;6.350;2023-02-17T11:20:39;97891.16;;;15.35;34.33
64610;BME280;51019;46.090;6.350;2023-02-17T11:23:21;97902.56;;;15.64;34.27
64610;BME280;51019;46.090;6.350;2023-02-17T11:25:59;97898.78;;;15.28;34.08
64610;BME280;51019;46.090;6.350;2023-02-17T11:28:27;97794.91;;;15.47;34.27
64610;BME280;51019;46.090;6.350;2023-02-17T11:30:57;97884.94;;;16.11;33.55
64610;BME280;51019;46.090;6.350;2023-02-17T11:33:33;97879.53;;;15.93;33.25
64610;BME280;51019;46.090;6.350;2023-02-17T11:36:02;97882.25;;;16.48;32.67
64610;BME280;51019;46.090;6.350;2023-02-17T11:38:41;97874.91;;;16.42;32.73
64610;BME280;51019;46.090;6.350;2023-02-17T11:41:09;97870.88;;;17.82;31.14
64610;BME280;51019;46.090;6.350;2023-02-17T11:43:37;97864.66;;;16.84;32.53
64610;BME280;51019;46.090;6.350;2023-02-17T11:46:13;97856.06;;;17.71;30.57
64610;BME280;51019;46.090;6.350;2023-02-17T11:49:23;97862.41;;;18.38;29.97
64610;BME280;51019;46.090;6.350;2023-02-17T11:52:07;97846.69;;;20.63;27.53
64610;BME280;51019;46.090;6.350;2023-02-17T11:54:53;97843.59;;;19.64;29.12
64610;BME280;51019;46.090;6.350;2023-02-17T11:57:34;97806.34;;;19.32;29.18
64610;BME280;51019;46.090;6.350;2023-02-17T12:00:14;97843.06;;;19.12;29.11
64610;BME280;51019;46.090;6.350;2023-02-17T12:05:54;97826.31;;;19.68;29.75
64610;BME280;51019;46.090;6.350;2023-02-17T12:08:36;97823.28;;;21.05;27.62
64610;BME280;51019;46.090;6.350;2023-02-17T12:11:18;97822.81;;;20.39;28.02
64610;BME280;51019;46.090;6.350;2023-02-17T12:13:56;97796.53;;;18.41;30.80
64610;BME280;51019;46.090;6.350;2023-02-17T12:16:39;97800.34;;;18.97;30.88
64610;BME280;51019;46.090;6.350;2023-02-17T12:19:16;97802.09;;;20.18;29.51
64610;BME280;51019;46.090;6.350;2023-02-17T12:21:57;97810.13;;;19.94;29.21
64610;BME280;51019;46.090;6.350;2023-02-17T12:24:45;97801.44;;;21.55;27.70
64610;BME280;51019;46.090;6.350;2023-02-17T12:27:28;97808.78;;;22.34;27.12
64610;BME280;51019;46.090;6.350;2023-02-17T12:30:12;97796.28;;;21.53;26.99
64610;BME280;51019;46.090;6.350;2023-02-17T12:33:02;97795.59;;;23.20;25.81
64610;BME280;51019;46.090;6.350;2023-02-17T12:35:41;97785.94;;;22.02;27.03
64610;BME280;51019;46.090;6.350;2023-02-17T12:38:17;97788.91;;;22.73;27.09
64610;BME280;51019;46.090;6.350;2023-02-17T12:40:49;97792.81;;;22.56;27.39
64610;BME280;51019;46.090;6.350;2023-02-17T12:43:24;97767.13;;;22.40;26.87
64610;BME280;51019;46.090;6.350;2023-02-17T12:45:54;97783.91;;;21.15;28.00
64610;BME280;51019;46.090;6.350;2023-02-17T12:48:27;97780.56;;;21.13;29.04
64610;BME280;51019;46.090;6.350;2023-02-17T12:51:01;97762.09;;;22.01;27.86
64610;BME280;51019;46.090;6.350;2023-02-17T12:53:38;97759.31;;;22.89;27.06
64610;BME280;51019;46.090;6.350;2023-02-17T12:59:15;97740.56;;;23.32;25.90
64610;BME280;51019;46.090;6.350;2023-02-17T13:01:51;97757.38;;;23.04;27.15
64610;BME280;51019;46.090;6.350;2023-02-17T13:04:22;97752.56;;;23.64;25.64
64610;BME280;51019;46.090;6.350;2023-02-17T13:09:40;97758.84;;;21.61;28.94
64610;BME280;51019;46.090;6.350;2023-02-17T13:12:17;97761.44;;;22.43;28.88
64610;BME280;51019;46.090;6.350;2023-02-17T13:14:59;97761.19;;;22.23;29.24
64610;BME280;51019;46.090;6.350;2023-02-17T13:17:30;97732.09;;;21.55;29.78
64610;BME280;51019;46.090;6.350;2023-02-17T13:20:28;97755.22;;;22.06;30.19
64610;BME280;51019;46.090;6.350;2023-02-17T13:23:10;97755.56;;;21.89;30.61
64610;BME280;51019;46.090;6.350;2023-02-17T13:25:38;97749.94;;;21.69;31.37
64610;BME280;51019;46.090;6.350;2023-02-17T13:28:30;97730.34;;;22.06;29.98
64610;BME280;51019;46.090;6.350;2023-02-17T13:31:11;97766.16;;;22.26;29.75
64610;BME280;51019;46.090;6.350;2023-02-17T13:33:44;97740.09;;;21.84;29.89